Venez Explorer Les Airs Avec Nous!

Que ce soit pour un vol de découverte, pour apprendre l’art du pilotage ou pour voyager, venez nous rejoindre.

Information en heures locale pour LFDL
21 April 2019

Metar
LFBI 211500Z AUTO 32005KT 260V010 CAVOK 20/09 Q1015 TEMPO 12015G25KT 4000 SHRA BKN040CB

Lever du soleil aéronautique : 04:32

Lever du soleil : 05:02

Coucher du soleil :18:54

Coucher du soleil aéronautique :19:24

Contacts

Téléphone

Club:
07-66-57-42-61

Michel Richez (président):
06-52-73-09-01

Adresse

Aéroclub de Loudun
Bellevue
86200 Loudun

Vous vous trouvez sur un site temporaire.

Un site définitif sera disponible rapidement, en attendant vous pouvez nous contacter via les informations ci-dessus

Fermer le menu